createdAt,value
2023-02-18T00:00:46.577Z,98701.59
2023-02-18T00:01:48.458Z,98700.94
2023-02-18T00:02:52.546Z,98698.50
2023-02-18T00:03:54.764Z,98700.31
2023-02-18T00:04:56.689Z,98690.41
2023-02-18T00:05:58.520Z,98705.03
2023-02-18T00:07:00.540Z,98705.25
2023-02-18T00:08:02.334Z,98704.00
2023-02-18T00:09:05.417Z,98709.13
2023-02-18T00:10:11.480Z,98709.34
2023-02-18T00:11:14.019Z,98704.63
2023-02-18T00:12:15.812Z,98707.47
2023-02-18T00:13:17.775Z,98694.91
2023-02-18T00:14:19.705Z,98713.22
2023-02-18T00:15:21.630Z,98702.47
2023-02-18T00:16:24.919Z,98709.91
2023-02-18T00:17:28.300Z,98710.13
2023-02-18T00:18:30.700Z,98711.94
2023-02-18T00:19:32.475Z,98705.34
2023-02-18T00:20:36.264Z,98715.66
2023-02-18T00:21:39.857Z,98714.00
2023-02-18T00:22:41.627Z,98708.66
2023-02-18T00:23:44.163Z,98717.69
2023-02-18T00:24:45.976Z,98712.72
2023-02-18T00:25:47.781Z,98707.38
2023-02-18T00:26:53.328Z,98710.22
2023-02-18T00:27:55.528Z,98695.38
2023-02-18T00:28:57.300Z,98712.91
2023-02-18T00:29:59.302Z,98715.59
2023-02-18T00:31:08.137Z,98684.59
2023-02-18T00:32:10.443Z,98702.19
2023-02-18T00:33:12.291Z,98724.81
2023-02-18T00:34:14.220Z,98713.31
2023-02-18T00:35:16.060Z,98726.03
2023-02-18T00:36:20.736Z,98720.91
2023-02-18T00:37:22.585Z,98719.88
2023-02-18T00:38:24.400Z,98725.41
2023-02-18T00:39:26.493Z,98722.94
2023-02-18T00:40:28.474Z,98713.38
2023-02-18T00:41:30.769Z,98715.69
2023-02-18T00:42:32.590Z,98728.44
2023-02-18T00:43:34.446Z,98721.03
2023-02-18T00:44:37.273Z,98727.66
2023-02-18T00:45:39.122Z,98724.97
2023-02-18T00:46:41.269Z,98716.31
2023-02-18T00:47:43.091Z,98722.47
2023-02-18T00:48:45.223Z,98723.50
2023-02-18T00:49:47.184Z,98718.16
2023-02-18T00:50:49.072Z,98729.69
2023-02-18T00:51:51.064Z,98729.84
2023-02-18T00:52:52.825Z,98711.47
2023-02-18T00:53:54.703Z,98721.59
2023-02-18T00:54:56.499Z,98727.38
2023-02-18T00:55:58.569Z,98728.38
2023-02-18T00:57:00.401Z,98713.34
2023-02-18T00:59:04.016Z,98734.75
2023-02-18T01:00:07.643Z,98739.28
2023-02-18T01:01:11.389Z,98734.75
2023-02-18T01:02:13.275Z,98716.00
2023-02-18T01:03:15.318Z,98730.81
2023-02-18T01:04:17.263Z,98722.38
2023-02-18T01:05:19.046Z,98724.44
2023-02-18T01:06:22.352Z,98737.16
2023-02-18T01:07:24.282Z,98739.66
2023-02-18T01:08:26.285Z,98731.81
2023-02-18T01:09:28.089Z,98733.47
2023-02-18T01:10:29.897Z,98731.03
2023-02-18T01:11:32.595Z,98741.50
2023-02-18T01:12:34.368Z,98736.16
2023-02-18T01:13:37.085Z,98735.50
2023-02-18T01:14:42.278Z,98737.16
2023-02-18T01:15:46.508Z,98726.41
2023-02-18T01:16:48.318Z,98739.22
2023-02-18T01:17:51.877Z,98741.22
2023-02-18T01:18:53.817Z,98727.22
2023-02-18T01:19:55.704Z,98741.88
2023-02-18T01:20:58.655Z,98748.25
2023-02-18T01:22:00.892Z,98742.09
2023-02-18T01:23:03.361Z,98743.06
2023-02-18T01:24:05.692Z,98741.22
2023-02-18T01:25:08.292Z,98737.91
2023-02-18T01:26:11.524Z,98739.56
2023-02-18T01:27:13.533Z,98727.38
2023-02-18T01:28:16.662Z,98744.09
2023-02-18T01:29:18.856Z,98728.84
2023-02-18T01:30:21.143Z,98743.25
2023-02-18T01:31:23.178Z,98735.44
2023-02-18T01:32:26.290Z,98733.59
2023-02-18T01:33:28.078Z,98741.59
2023-02-18T01:34:29.849Z,98723.03
2023-02-18T01:35:34.473Z,98730.03
2023-02-18T01:36:36.248Z,98736.63
2023-02-18T01:37:38.204Z,98735.84
2023-02-18T01:38:41.003Z,98733.34
2023-02-18T01:39:42.818Z,98729.41
2023-02-18T01:40:51.521Z,98743.84
2023-02-18T01:41:53.313Z,98734.59
2023-02-18T01:42:55.550Z,98741.16
2023-02-18T01:44:15.468Z,98746.94
2023-02-18T01:45:35.490Z,98738.75
2023-02-18T01:46:37.487Z,98744.91
2023-02-18T01:47:40.256Z,98741.59
2023-02-18T01:48:55.157Z,98730.22
2023-02-18T01:49:56.974Z,98752.28
2023-02-18T01:51:22.355Z,98751.00
2023-02-18T01:52:27.200Z,98749.59
2023-02-18T01:53:52.936Z,98755.78
2023-02-18T01:54:57.868Z,98753.94
2023-02-18T01:57:20.834Z,98755.34
2023-02-18T01:58:23.412Z,98750.63
2023-02-18T01:59:33.916Z,98756.34
2023-02-18T02:00:37.078Z,98753.69
2023-02-18T02:01:40.504Z,98747.72
2023-02-18T02:02:46.248Z,98752.41
2023-02-18T02:03:48.044Z,98756.72
2023-02-18T02:04:50.879Z,98737.34
2023-02-18T02:05:52.657Z,98745.16
2023-02-18T02:06:54.682Z,98753.44
2023-02-18T02:07:59.660Z,98745.53
2023-02-18T02:09:06.819Z,98752.59
2023-02-18T02:10:10.340Z,98752.59
2023-02-18T02:11:26.694Z,98749.91
2023-02-18T02:13:05.608Z,98757.00
2023-02-18T02:14:39.833Z,98757.25
2023-02-18T02:15:45.000Z,98759.09
2023-02-18T02:17:01.979Z,98754.31
2023-02-18T02:18:37.299Z,98758.84
2023-02-18T02:20:21.293Z,98754.31
2023-02-18T02:21:28.940Z,98761.94
2023-02-18T02:22:56.213Z,98760.50
2023-02-18T02:24:09.906Z,98759.66
2023-02-18T02:25:39.292Z,98754.91
2023-02-18T02:27:14.564Z,98754.31
2023-02-18T02:28:30.244Z,98751.84
2023-02-18T02:29:53.322Z,98757.19
2023-02-18T02:31:33.572Z,98745.41
2023-02-18T02:33:07.631Z,98754.94
2023-02-18T02:34:27.972Z,98757.63
2023-02-18T02:35:42.414Z,98752.41
2023-02-18T02:36:49.752Z,98753.44
2023-02-18T02:38:02.526Z,98759.16
2023-02-18T02:39:19.444Z,98758.31
2023-02-18T02:40:46.412Z,98746.44
2023-02-18T02:42:23.608Z,98749.56
2023-02-18T02:43:46.844Z,98755.09
2023-02-18T02:45:00.743Z,98753.44
2023-02-18T02:46:17.705Z,98747.63
2023-02-18T02:47:55.428Z,98761.22
2023-02-18T02:49:28.825Z,98754.69
2023-02-18T02:50:39.465Z,98753.44
2023-02-18T02:51:54.505Z,98755.47
2023-02-18T02:53:06.136Z,98761.19
2023-02-18T02:54:16.699Z,98753.34
2023-02-18T02:55:18.643Z,98746.94
2023-02-18T02:56:25.439Z,98753.72
2023-02-18T02:57:29.554Z,98763.59
2023-02-18T02:58:38.528Z,98748.72
2023-02-18T02:59:43.972Z,98756.78
2023-02-18T03:01:07.579Z,98753.56
2023-02-18T03:02:29.558Z,98764.25
2023-02-18T03:03:52.608Z,98760.16
2023-02-18T03:05:04.036Z,98762.22
2023-02-18T03:06:11.786Z,98759.53
2023-02-18T03:07:34.993Z,98763.59
2023-02-18T03:08:52.060Z,98765.69
2023-02-18T03:10:28.002Z,98766.31
2023-02-18T03:11:40.796Z,98770.66
2023-02-18T03:12:57.843Z,98769.84
2023-02-18T03:14:10.008Z,98766.06
2023-02-18T03:15:27.709Z,98770.38
2023-02-18T03:16:45.797Z,98775.72
2023-02-18T03:18:05.403Z,98770.22
2023-02-18T03:19:14.448Z,98774.28
2023-02-18T03:20:35.642Z,98764.53
2023-02-18T03:21:48.098Z,98781.28
2023-02-18T03:22:53.713Z,98778.78
2023-02-18T03:24:04.038Z,98775.03
2023-02-18T03:25:08.992Z,98783.47
2023-02-18T03:26:12.827Z,98778.34
2023-02-18T03:27:25.283Z,98785.72
2023-02-18T03:28:32.298Z,98774.19
2023-02-18T03:29:37.167Z,98782.66
2023-02-18T03:30:48.274Z,98784.06
2023-02-18T03:31:56.548Z,98787.38
2023-02-18T03:33:04.983Z,98788.19
2023-02-18T03:34:12.884Z,98787.38
2023-02-18T03:35:17.925Z,98786.53
2023-02-18T03:36:21.545Z,98795.38
2023-02-18T03:37:23.831Z,98782.97
2023-02-18T03:38:39.328Z,98791.06
2023-02-18T03:39:44.475Z,98793.72
2023-02-18T03:40:47.072Z,98792.72
2023-02-18T03:41:49.795Z,98784.78
2023-02-18T03:42:51.620Z,98792.06
2023-02-18T03:44:00.581Z,98797.59
2023-02-18T03:45:04.133Z,98798.22
2023-02-18T03:46:06.362Z,98775.72
2023-02-18T03:47:08.617Z,98788.09
2023-02-18T03:48:10.504Z,98798.44
2023-02-18T03:49:14.246Z,98798.59
2023-02-18T03:50:16.292Z,98798.44
2023-02-18T03:51:18.292Z,98786.00
2023-02-18T03:52:20.576Z,98799.44
2023-02-18T03:53:22.413Z,98808.44
2023-02-18T03:54:25.193Z,98801.44
2023-02-18T03:55:27.050Z,98808.44
2023-02-18T03:56:28.966Z,98804.97
2023-02-18T03:57:31.148Z,98798.13
2023-02-18T03:58:32.928Z,98793.38
2023-02-18T03:59:34.859Z,98805.78
2023-02-18T04:00:36.870Z,98805.78
2023-02-18T04:01:39.552Z,98809.44
2023-02-18T04:02:41.865Z,98805.78
2023-02-18T04:03:44.041Z,98811.50
2023-02-18T04:04:45.868Z,98808.00
2023-02-18T04:05:48.118Z,98805.78
2023-02-18T04:06:49.933Z,98794.56
2023-02-18T04:07:51.864Z,98807.81
2023-02-18T04:08:53.710Z,98810.31
2023-02-18T04:09:55.472Z,98809.03
2023-02-18T04:10:57.398Z,98805.78
2023-02-18T04:11:59.228Z,98810.31
2023-02-18T04:13:01.097Z,98812.13
2023-02-18T04:14:03.029Z,98816.44
2023-02-18T04:15:05.293Z,98813.97
2023-02-18T04:16:07.885Z,98819.13
2023-02-18T04:17:10.168Z,98815.63
2023-02-18T04:18:12.393Z,98807.53
2023-02-18T04:19:14.185Z,98817.47
2023-02-18T04:20:16.780Z,98824.47
2023-02-18T04:21:18.578Z,98820.97
2023-02-18T04:22:20.413Z,98820.13
2023-02-18T04:23:22.318Z,98817.47
2023-02-18T04:24:24.331Z,98821.78
2023-02-18T04:25:27.576Z,98820.13
2023-02-18T04:26:29.826Z,98822.81
2023-02-18T04:27:31.589Z,98817.47
2023-02-18T04:28:33.679Z,98827.34
2023-02-18T04:29:35.617Z,98824.66
2023-02-18T04:30:37.581Z,98822.81
2023-02-18T04:31:39.466Z,98820.13
2023-02-18T04:32:41.440Z,98830.81
2023-02-18T04:33:43.313Z,98801.13
2023-02-18T04:34:45.108Z,98820.97
2023-02-18T04:35:46.959Z,98829.00
2023-02-18T04:36:48.812Z,98828.16
2023-02-18T04:37:50.888Z,98820.88
2023-02-18T04:38:52.786Z,98835.34
2023-02-18T04:39:54.601Z,98833.69
2023-02-18T04:40:56.405Z,98840.69
2023-02-18T04:41:58.206Z,98830.16
2023-02-18T04:43:01.180Z,98832.84
2023-02-18T04:44:02.989Z,98834.50
2023-02-18T04:45:05.606Z,98837.16
2023-02-18T04:46:07.727Z,98836.16
2023-02-18T04:47:09.811Z,98797.09
2023-02-18T04:48:11.639Z,98829.00
2023-02-18T04:49:13.416Z,98835.13
2023-02-18T04:50:15.319Z,98837.81
2023-02-18T04:51:17.135Z,98836.16
2023-02-18T04:52:19.239Z,98828.53
2023-02-18T04:53:21.003Z,98837.00
2023-02-18T04:54:23.055Z,98837.81
2023-02-18T04:55:24.937Z,98837.00
2023-02-18T04:56:26.716Z,98838.81
2023-02-18T04:57:28.606Z,98796.06
2023-02-18T04:58:30.456Z,98840.47
2023-02-18T04:59:32.292Z,98834.16
2023-02-18T05:00:34.105Z,98834.97
2023-02-18T05:01:36.059Z,98834.16
2023-02-18T05:02:37.905Z,98829.78
2023-02-18T05:03:39.800Z,98834.31
2023-02-18T05:04:41.578Z,98840.47
2023-02-18T05:05:43.420Z,98839.50
2023-02-18T05:06:45.368Z,98827.06
2023-02-18T05:07:47.359Z,98827.13
2023-02-18T05:08:49.205Z,98839.50
2023-02-18T05:09:51.302Z,98834.16
2023-02-18T05:10:53.160Z,98832.19
2023-02-18T05:11:55.104Z,98836.81
2023-02-18T05:12:56.894Z,98827.50
2023-02-18T05:13:58.660Z,98827.78
2023-02-18T05:15:00.583Z,98810.97
2023-02-18T05:16:02.694Z,98830.63
2023-02-18T05:17:04.490Z,98832.28
2023-02-18T05:18:07.245Z,98838.66
2023-02-18T05:19:10.776Z,98834.16
2023-02-18T05:20:12.985Z,98828.81
2023-02-18T05:21:14.858Z,98830.47
2023-02-18T05:22:16.724Z,98832.47
2023-02-18T05:23:20.283Z,98835.97
2023-02-18T05:24:22.468Z,98832.47
2023-02-18T05:25:24.364Z,98828.81
2023-02-18T05:26:26.210Z,98829.53
2023-02-18T05:27:28.092Z,98837.81
2023-02-18T05:28:29.999Z,98834.50
2023-02-18T05:29:31.825Z,98838.81
2023-02-18T05:30:33.809Z,98833.31
2023-02-18T05:31:35.864Z,98839.03
2023-02-18T05:32:37.788Z,98839.66
2023-02-18T05:33:39.651Z,98826.06
2023-02-18T05:34:41.571Z,98820.63
2023-02-18T05:35:43.334Z,98841.50
2023-02-18T05:36:45.104Z,98837.81
2023-02-18T05:37:47.032Z,98840.69
2023-02-18T05:38:48.845Z,98837.00
2023-02-18T05:39:50.676Z,98846.84
2023-02-18T05:40:52.629Z,98840.69
2023-02-18T05:41:54.428Z,98824.94
2023-02-18T05:42:56.268Z,98826.97
2023-02-18T05:44:16.585Z,98836.16
2023-02-18T05:45:18.488Z,98836.63
2023-02-18T05:46:20.316Z,98839.50
2023-02-18T05:47:22.169Z,98843.16
2023-02-18T05:48:23.959Z,98845.19
2023-02-18T05:49:25.928Z,98846.03
2023-02-18T05:50:27.797Z,98828.25
2023-02-18T05:51:29.652Z,98845.19
2023-02-18T05:52:31.476Z,98847.03
2023-02-18T05:53:33.275Z,98841.69
2023-02-18T05:54:36.242Z,98843.53
2023-02-18T05:55:39.268Z,98837.75
2023-02-18T05:56:41.368Z,98847.84
2023-02-18T05:57:43.263Z,98847.03
2023-02-18T05:58:45.431Z,98849.72
2023-02-18T05:59:47.245Z,98854.19
2023-02-18T06:00:49.061Z,98848.03
2023-02-18T06:01:51.357Z,98845.38
2023-02-18T06:02:53.300Z,98847.03
2023-02-18T06:03:55.103Z,98843.53
2023-02-18T06:04:56.921Z,98847.22
2023-02-18T06:05:58.881Z,98847.22
2023-02-18T06:07:00.772Z,98856.88
2023-02-18T06:08:02.617Z,98842.72
2023-02-18T06:09:06.042Z,98849.06
2023-02-18T06:10:08.308Z,98847.22
2023-02-18T06:11:10.185Z,98849.88
2023-02-18T06:12:12.070Z,98858.72
2023-02-18T06:13:14.523Z,98848.22
2023-02-18T06:14:16.428Z,98851.72
2023-02-18T06:15:18.257Z,98850.09
2023-02-18T06:16:20.112Z,98854.41
2023-02-18T06:17:22.752Z,98850.09
2023-02-18T06:18:25.307Z,98864.25
2023-02-18T06:19:27.469Z,98845.88
2023-02-18T06:20:29.338Z,98864.25
2023-02-18T06:21:31.291Z,98863.44
2023-02-18T06:22:33.128Z,98862.59
2023-02-18T06:23:35.221Z,98839.69
2023-02-18T06:24:37.688Z,98863.59
2023-02-18T06:25:39.983Z,98867.28
2023-02-18T06:26:41.850Z,98867.28
2023-02-18T06:27:43.604Z,98864.81
2023-02-18T06:28:45.520Z,98871.59
2023-02-18T06:29:47.325Z,98863.16
2023-02-18T06:30:49.634Z,98830.03
2023-02-18T06:31:51.542Z,98864.59
2023-02-18T06:32:53.439Z,98876.94
2023-02-18T06:33:55.223Z,98871.59
2023-02-18T06:34:57.136Z,98861.94
2023-02-18T06:36:07.963Z,98867.28
2023-02-18T06:37:09.884Z,98854.88
2023-02-18T06:38:11.700Z,98868.94
2023-02-18T06:39:13.620Z,98832.53
2023-02-18T06:40:15.506Z,98862.31
2023-02-18T06:41:18.107Z,98878.81
2023-02-18T06:42:20.003Z,98863.53
2023-02-18T06:43:22.383Z,98874.28
2023-02-18T06:44:24.172Z,98863.81
2023-02-18T06:45:26.192Z,98872.63
2023-02-18T06:46:28.130Z,98877.97
2023-02-18T06:47:29.929Z,98876.31
2023-02-18T06:48:32.209Z,98870.06
2023-02-18T06:49:34.165Z,98868.88
2023-02-18T06:50:36.001Z,98874.66
2023-02-18T06:52:39.873Z,98861.78
2023-02-18T06:53:43.697Z,98873.84
2023-02-18T06:54:45.466Z,98871.72
2023-02-18T06:55:47.372Z,98878.31
2023-02-18T06:56:49.266Z,98873.84
2023-02-18T06:57:51.268Z,98878.69
2023-02-18T06:58:53.167Z,98879.19
2023-02-18T06:59:54.956Z,98877.53
2023-02-18T07:00:56.907Z,98879.97
2023-02-18T07:01:58.776Z,98887.19
2023-02-18T07:03:00.576Z,98877.03
2023-02-18T07:04:02.628Z,98885.53
2023-02-18T07:05:05.337Z,98891.88
2023-02-18T07:06:07.671Z,98874.56
2023-02-18T07:07:09.679Z,98887.34
2023-02-18T07:08:11.572Z,98882.66
2023-02-18T07:09:13.352Z,98883.66
2023-02-18T07:10:15.202Z,98882.66
2023-02-18T07:11:17.229Z,98873.38
2023-02-18T07:12:19.091Z,98880.63
2023-02-18T07:13:21.038Z,98889.91
2023-02-18T07:14:24.472Z,98883.38
2023-02-18T07:15:27.946Z,98891.19
2023-02-18T07:16:29.826Z,98879.34
2023-02-18T07:17:31.607Z,98891.50
2023-02-18T07:18:33.390Z,98882.47
2023-02-18T07:19:35.229Z,98886.44
2023-02-18T07:20:37.089Z,98871.16
2023-02-18T07:21:38.944Z,98871.69
2023-02-18T07:22:40.705Z,98892.28
2023-02-18T07:23:42.587Z,98886.56
2023-02-18T07:24:44.525Z,98886.19
2023-02-18T07:25:46.377Z,98885.81
2023-02-18T07:26:48.185Z,98890.78
2023-02-18T07:27:50.145Z,98878.09
2023-02-18T07:28:51.920Z,98885.34
2023-02-18T07:29:53.869Z,98884.00
2023-02-18T07:30:55.692Z,98886.09
2023-02-18T07:31:57.599Z,98889.22
2023-02-18T07:32:59.428Z,98886.34
2023-02-18T07:34:01.255Z,98891.13
2023-02-18T07:35:04.784Z,98889.09
2023-02-18T07:36:07.537Z,98889.34
2023-02-18T07:37:09.819Z,98897.63
2023-02-18T07:38:11.665Z,98892.75
2023-02-18T07:39:13.518Z,98895.03
2023-02-18T07:40:19.027Z,98892.16
2023-02-18T07:41:23.234Z,98890.50
2023-02-18T07:42:25.190Z,98885.69
2023-02-18T07:43:27.081Z,98897.66
2023-02-18T07:44:30.704Z,98888.59
2023-02-18T07:45:32.519Z,98879.94
2023-02-18T07:46:34.349Z,98887.59
2023-02-18T07:47:36.161Z,98882.88
2023-02-18T07:48:38.243Z,98895.91
2023-02-18T07:49:40.346Z,98898.38
2023-02-18T07:50:44.226Z,98897.38
2023-02-18T07:51:50.068Z,98889.09
2023-02-18T07:52:52.195Z,98874.72
2023-02-18T07:53:53.972Z,98896.22
2023-02-18T07:54:55.756Z,98903.22
2023-02-18T07:56:00.301Z,98903.84
2023-02-18T07:57:02.216Z,98902.66
2023-02-18T07:58:04.052Z,98905.09
2023-02-18T07:59:05.951Z,98907.59
2023-02-18T08:00:08.509Z,98901.16
2023-02-18T08:01:15.403Z,98905.59
2023-02-18T08:02:20.488Z,98900.03
2023-02-18T08:03:25.316Z,98905.03
2023-02-18T08:04:27.327Z,98914.72
2023-02-18T08:05:29.249Z,98906.69
2023-02-18T08:06:40.558Z,98909.16
2023-02-18T08:07:42.587Z,98921.13
2023-02-18T08:08:44.353Z,98905.22
2023-02-18T08:09:46.127Z,98912.47
2023-02-18T08:10:48.590Z,98903.72
2023-02-18T08:11:50.557Z,98917.63
2023-02-18T08:12:52.337Z,98923.78
2023-02-18T08:13:54.139Z,98918.44
2023-02-18T08:14:55.912Z,98916.59
2023-02-18T08:15:58.448Z,98913.94
2023-02-18T08:17:00.333Z,98917.41
2023-02-18T08:18:02.646Z,98916.16
2023-02-18T08:19:04.679Z,98918.25
2023-02-18T08:20:07.132Z,98917.25
2023-02-18T08:21:09.031Z,98913.72
2023-02-18T08:22:10.834Z,98914.56
2023-02-18T08:23:13.192Z,98907.09
2023-02-18T08:24:15.008Z,98923.41
2023-02-18T08:25:28.919Z,98926.91
2023-02-18T08:26:31.602Z,98918.50
2023-02-18T08:27:33.404Z,98922.19
2023-02-18T08:28:35.420Z,98912.53
2023-02-18T08:29:37.269Z,98921.56
2023-02-18T08:30:39.151Z,98926.91
2023-02-18T08:31:43.195Z,98924.25
2023-02-18T08:32:45.709Z,98928.56
2023-02-18T08:33:48.108Z,98930.63
2023-02-18T08:34:49.904Z,98934.94
2023-02-18T08:35:53.461Z,98927.94
2023-02-18T08:36:55.239Z,98932.28
2023-02-18T08:37:57.811Z,98925.25
2023-02-18T08:39:00.611Z,98924.00
2023-02-18T08:40:04.377Z,98919.22
2023-02-18T08:41:08.467Z,98932.28
2023-02-18T08:42:10.452Z,98932.28
2023-02-18T08:43:13.588Z,98937.63
2023-02-18T08:44:15.497Z,98921.50
2023-02-18T08:45:17.345Z,98935.97
2023-02-18T08:46:25.082Z,98930.63
2023-02-18T08:48:18.374Z,98936.38
2023-02-18T08:48:57.456Z,98929.84
2023-02-18T08:49:59.365Z,98934.56
2023-02-18T08:51:10.698Z,98930.22
2023-02-18T08:52:12.692Z,98932.66
2023-02-18T08:53:14.961Z,98933.91
2023-02-18T08:54:18.036Z,98936.34
2023-02-18T08:55:24.211Z,98944.00
2023-02-18T08:56:26.313Z,98931.41
2023-02-18T08:57:29.115Z,98928.34
2023-02-18T08:58:30.884Z,98945.03
2023-02-18T08:59:32.726Z,98948.72
2023-02-18T09:00:35.313Z,98928.09
2023-02-18T09:01:37.204Z,98939.03
2023-02-18T09:02:39.367Z,98946.22
2023-02-18T09:03:41.716Z,98928.66
2023-02-18T09:04:43.760Z,98937.13
2023-02-18T09:05:45.634Z,98948.09
2023-02-18T09:06:50.332Z,98945.59
2023-02-18T09:07:52.121Z,98953.44
2023-02-18T09:08:54.060Z,98949.09
2023-02-18T09:09:55.849Z,98941.06
2023-02-18T09:10:59.707Z,98943.75
2023-02-18T09:12:01.689Z,98951.78
2023-02-18T09:13:04.589Z,98954.63
2023-02-18T09:14:06.398Z,98959.81
2023-02-18T09:15:08.617Z,98958.16
2023-02-18T09:16:18.422Z,98952.78
2023-02-18T09:17:20.912Z,98954.44
2023-02-18T09:18:22.809Z,98958.97
2023-02-18T09:19:25.282Z,98946.53
2023-02-18T09:20:27.980Z,98959.16
2023-02-18T09:21:30.118Z,98959.97
2023-02-18T09:22:32.963Z,98961.00
2023-02-18T09:23:36.148Z,98958.72
2023-02-18T09:24:39.468Z,98961.00
2023-02-18T09:25:41.401Z,98965.72
2023-02-18T09:26:43.161Z,98966.34
2023-02-18T09:27:44.985Z,98949.22
2023-02-18T09:28:49.243Z,98955.84
2023-02-18T09:29:52.012Z,98959.25
2023-02-18T09:30:53.910Z,98964.53
2023-02-18T09:31:55.896Z,98965.53
2023-02-18T09:32:57.674Z,98972.72
2023-02-18T09:34:01.562Z,98959.34
2023-02-18T09:35:05.013Z,98964.69
2023-02-18T09:36:07.427Z,98958.06
2023-02-18T09:37:09.189Z,98965.53
2023-02-18T09:38:13.179Z,98969.59
2023-02-18T09:39:15.866Z,98967.38
2023-02-18T09:40:32.158Z,98970.88
2023-02-18T09:41:43.109Z,98967.81
2023-02-18T09:42:45.162Z,98970.50
2023-02-18T09:43:52.315Z,98957.59
2023-02-18T09:44:58.100Z,98959.09
2023-02-18T09:46:02.230Z,98969.88
2023-02-18T09:47:40.055Z,98977.91
2023-02-18T09:48:44.701Z,98975.47
2023-02-18T09:49:59.092Z,98972.78
2023-02-18T09:51:00.972Z,98978.16
2023-02-18T09:52:16.484Z,98980.19
2023-02-18T09:53:18.567Z,98972.16
2023-02-18T09:54:21.461Z,98971.53
2023-02-18T09:55:38.838Z,98984.91
2023-02-18T09:56:42.912Z,98975.84
2023-02-18T09:57:49.004Z,98964.44
2023-02-18T09:58:51.117Z,98981.59
2023-02-18T10:00:08.597Z,98978.91
2023-02-18T10:01:35.617Z,98980.38
2023-02-18T10:02:39.707Z,98969.03
2023-02-18T10:03:43.954Z,98989.22
2023-02-18T10:04:46.022Z,98984.06
2023-02-18T10:05:59.004Z,98959.75
2023-02-18T10:07:03.753Z,98990.63
2023-02-18T10:08:38.426Z,98978.28
2023-02-18T10:09:42.169Z,98990.69
2023-02-18T10:10:46.502Z,98973.28
2023-02-18T10:11:52.725Z,98983.44
2023-02-18T10:12:55.706Z,98979.94
2023-02-18T10:13:58.804Z,98981.97
2023-02-18T10:15:01.696Z,98987.31
2023-02-18T10:16:04.697Z,98980.28
2023-02-18T10:17:08.561Z,98980.28
2023-02-18T10:18:31.837Z,98983.44
2023-02-18T10:19:38.592Z,98954.41
2023-02-18T10:20:40.548Z,98998.03
2023-02-18T10:21:42.801Z,98972.38
2023-02-18T10:22:44.778Z,98999.88
2023-02-18T10:24:28.156Z,99003.25
2023-02-18T10:25:32.024Z,98996.00
2023-02-18T10:26:37.392Z,98994.50
2023-02-18T10:27:41.027Z,99000.50
2023-02-18T10:28:43.517Z,98992.69
2023-02-18T10:29:45.507Z,99007.88
2023-02-18T10:30:58.306Z,99010.75
2023-02-18T10:32:19.132Z,99001.97
2023-02-18T10:33:29.925Z,99012.84
2023-02-18T10:34:50.314Z,99016.16
2023-02-18T10:36:02.385Z,99006.47
2023-02-18T10:37:28.651Z,99013.31
2023-02-18T10:39:14.845Z,99012.94
2023-02-18T10:40:49.126Z,99003.28
2023-02-18T10:42:09.448Z,99014.59
2023-02-18T10:43:35.814Z,99007.56
2023-02-18T10:44:53.609Z,99012.28
2023-02-18T10:46:32.010Z,99008.59
2023-02-18T10:47:36.795Z,99005.91
2023-02-18T10:48:56.569Z,99009.38
2023-02-18T10:50:08.738Z,99000.03
2023-02-18T10:51:22.665Z,98998.84
2023-02-18T10:52:27.817Z,99007.88
2023-02-18T10:53:39.714Z,99012.38
2023-02-18T10:54:52.479Z,99017.75
2023-02-18T10:55:56.718Z,99015.28
2023-02-18T10:57:00.203Z,99020.78
2023-02-18T10:58:02.068Z,99016.44
2023-02-18T10:59:12.963Z,99006.47
2023-02-18T11:00:25.379Z,99020.13
2023-02-18T11:01:27.235Z,99013.59
2023-02-18T11:02:32.640Z,99028.16
2023-02-18T11:04:14.257Z,99024.78
2023-02-18T11:05:25.138Z,99013.06
2023-02-18T11:06:38.913Z,99026.44
2023-02-18T11:07:41.324Z,99024.78
2023-02-18T11:08:46.030Z,99022.47
2023-02-18T11:09:54.738Z,99024.28
2023-02-18T11:10:57.455Z,99027.81
2023-02-18T11:12:08.809Z,99019.06
2023-02-18T11:13:15.012Z,99015.41
2023-02-18T11:14:36.521Z,99029.63
2023-02-18T11:15:38.762Z,99022.91
2023-02-18T11:16:46.659Z,99021.44
2023-02-18T11:17:51.307Z,99017.09
2023-02-18T11:18:53.137Z,99027.81
2023-02-18T11:19:58.855Z,99039.50
2023-02-18T11:21:21.160Z,99020.13
2023-02-18T11:22:28.428Z,99030.31
2023-02-18T11:23:30.333Z,99021.16
2023-02-18T11:24:32.148Z,99025.13
2023-02-18T11:25:40.355Z,99036.38
2023-02-18T11:26:44.891Z,99029.63
2023-02-18T11:27:52.226Z,99040.34
2023-02-18T11:29:04.297Z,99041.19
2023-02-18T11:30:16.182Z,99036.69
2023-02-18T11:31:23.445Z,99036.69
2023-02-18T11:32:29.123Z,99029.47
2023-02-18T11:33:42.530Z,99011.97
2023-02-18T11:34:45.862Z,99037.31
2023-02-18T11:35:52.855Z,99031.31
2023-02-18T11:36:55.871Z,99039.16
2023-02-18T11:37:59.273Z,99031.31
2023-02-18T11:39:04.689Z,99028.28
2023-02-18T11:40:07.361Z,99040.16
2023-02-18T11:41:16.622Z,99044.84
2023-02-18T11:42:22.297Z,99026.06
2023-02-18T11:43:29.436Z,99040.34
2023-02-18T11:44:41.613Z,99048.19
2023-02-18T11:45:44.089Z,99039.06
2023-02-18T11:47:03.192Z,99043.50
2023-02-18T11:48:16.398Z,99046.19
2023-02-18T11:49:23.336Z,99046.19
2023-02-18T11:50:25.388Z,99044.50
2023-02-18T11:51:36.379Z,99048.19
2023-02-18T11:52:45.124Z,99042.84
2023-02-18T11:54:05.246Z,99047.00
2023-02-18T11:55:27.608Z,99062.50
2023-02-18T11:56:39.798Z,99052.19
2023-02-18T11:58:03.543Z,99048.19
2023-02-18T11:59:05.504Z,99055.47
2023-02-18T12:00:36.298Z,99055.19
2023-02-18T12:01:50.646Z,99051.97
2023-02-18T12:02:56.270Z,99065.56
2023-02-18T12:04:08.625Z,99054.22
2023-02-18T12:05:25.798Z,99049.50
2023-02-18T12:06:38.635Z,99050.06
2023-02-18T12:07:48.975Z,99060.53
2023-02-18T12:09:24.498Z,99066.38
2023-02-18T12:10:38.869Z,99065.34
2023-02-18T12:11:44.713Z,99055.88
2023-02-18T12:12:59.764Z,99067.59
2023-02-18T12:14:01.722Z,99056.88
2023-02-18T12:15:04.094Z,99056.38
2023-02-18T12:16:33.099Z,99068.78
2023-02-18T12:17:59.637Z,99069.88
2023-02-18T12:19:10.481Z,99067.38
2023-02-18T12:20:27.970Z,99054.22
2023-02-18T12:21:41.967Z,99060.53
2023-02-18T12:22:46.315Z,99060.75
2023-02-18T12:23:54.921Z,99083.16
2023-02-18T12:25:14.940Z,99063.56
2023-02-18T12:26:30.145Z,99076.59
2023-02-18T12:27:54.011Z,99072.72
2023-02-18T12:29:27.752Z,99062.66
2023-02-18T12:30:47.993Z,99087.75
2023-02-18T12:31:54.418Z,99064.59
2023-02-18T12:33:11.041Z,99082.78
2023-02-18T12:34:39.393Z,99088.16
2023-02-18T12:35:57.131Z,99089.81
2023-02-18T12:37:36.178Z,99091.28
2023-02-18T12:39:10.234Z,99082.88
2023-02-18T12:40:42.880Z,99087.38
2023-02-18T12:42:03.325Z,99085.56
2023-02-18T12:43:08.216Z,99077.91
2023-02-18T12:44:45.827Z,99093.13
2023-02-18T12:46:21.722Z,99098.94
2023-02-18T12:47:41.657Z,99084.53
2023-02-18T12:48:49.539Z,99091.66
2023-02-18T12:50:26.868Z,99093.75
2023-02-18T12:51:53.916Z,99085.94
2023-02-18T12:53:02.460Z,99084.91
2023-02-18T12:54:41.516Z,99081.22
2023-02-18T12:56:04.214Z,99090.69
2023-02-18T12:57:15.126Z,99099.94
2023-02-18T12:58:40.589Z,99086.00
2023-02-18T13:00:21.673Z,99088.22
2023-02-18T13:01:47.157Z,99106.75
2023-02-18T13:03:06.478Z,99099.31
2023-02-18T13:04:40.354Z,99101.13
2023-02-18T13:06:04.263Z,99104.28
2023-02-18T13:07:15.181Z,99112.47